Marida Marigold — V7PO7 — position and weather

sailwx.info

Track history (hours):
 
Tides and Currents Weather Stations Pressure Air Temp Water Temp Dewpoint Dewpoint Depression Visibility Wind Speed Wind Dir Waves Ship Positions

Marida Marigold

Last reported at 2017-Nov-24 06:48 UTC. Time now 2017-Nov-24 07:27 UTC.
Position S 04°60' E 010°49'.

Length 128 m; draft 7 m.

Type: Ship. MMSI: 538005559.

Date/timePositionNaut miles runAvg speedWind from/ knotsBaromVisibWave heightAir tempDewpointWater temp
2017-Nov-24 06:48S 04°60' E 010°49'3 0.3
2017-Nov-23 22:46S 04°57' E 010°50'  
2017-Nov-18 12:33S 05°04' E 010°49'1 9.8
2017-Nov-18 12:28S 05°04' E 010°49'2 1.6
2017-Nov-18 11:04S 05°06' E 010°51'0 1.7
2017-Nov-18 10:58S 05°06' E 010°51'1 1.9
2017-Nov-18 10:30S 05°05' E 010°51'7 2.1
2017-Nov-18 07:00S 04°57' E 010°52'5 2.5
2017-Nov-18 04:54S 04°52' E 010°51'  
2017-Nov-15 17:04S 05°09' E 011°01'0 1.6
2017-Nov-15 16:58S 05°09' E 011°01'1 1.6
2017-Nov-15 16:28S 05°10' E 011°02'2 1.9
2017-Nov-15 15:19S 05°12' E 011°03'1 1.6
2017-Nov-15 15:00S 05°12' E 011°03'2 3.8
2017-Nov-15 14:30S 05°11' E 011°02'4 7.2
2017-Nov-15 13:57S 05°08' E 010°59'  
Track history (hours):
 
Tides and Currents Weather Stations Pressure Air Temp Water Temp Dewpoint Dewpoint Depression Visibility Wind Speed Wind Dir Waves Ship Positions

Marida Marigold

Last reported at 2017-Nov-24 06:48 UTC. Time now 2017-Nov-24 07:27 UTC.
Position S 04°60' E 010°49'.

Length 128 m; draft 7 m.

Type: Ship. MMSI: 538005559.

Date/timePositionNaut miles runAvg speedWind from/ knotsBaromVisibWave heightAir tempDewpointWater temp
2017-Nov-24 06:48S 04°60' E 010°49'3 0.3
2017-Nov-23 22:46S 04°57' E 010°50'  
2017-Nov-18 12:33S 05°04' E 010°49'1 9.8
2017-Nov-18 12:28S 05°04' E 010°49'2 1.6
2017-Nov-18 11:04S 05°06' E 010°51'0 1.7
2017-Nov-18 10:58S 05°06' E 010°51'1 1.9
2017-Nov-18 10:30S 05°05' E 010°51'7 2.1
2017-Nov-18 07:00S 04°57' E 010°52'5 2.5
2017-Nov-18 04:54S 04°52' E 010°51'  
2017-Nov-15 17:04S 05°09' E 011°01'0 1.6
2017-Nov-15 16:58S 05°09' E 011°01'1 1.6
2017-Nov-15 16:28S 05°10' E 011°02'2 1.9
2017-Nov-15 15:19S 05°12' E 011°03'1 1.6
2017-Nov-15 15:00S 05°12' E 011°03'2 3.8
2017-Nov-15 14:30S 05°11' E 011°02'4 7.2
2017-Nov-15 13:57S 05°08' E 010°59'  

Dump ship's entire track history